»·PEaware :: N46AN KAPV-KBFL

N46AN :: KAPV-KBFL

FLIGHT INFORMATION

Flight Status: Arrived
Operator: Privately registered:
United States
More flights under this callsign
Pilot: Carson T. (20437)
Aircraft: CESSNA 172 SKYHAWK
(C172)
More flights by this aircraft type
Origin: KAPV Apple Valley
United States
Destination: KBFL Meadows
United States
More flights between these airports :: More routes between these airports
Route: PMD EHF
File this flight plan on PilotEdge
Remarks:
Altitude:
(Current/Filed)
6,500ft
Speed:
(Current/Filed)
120kts
Departed: 19-Sep-18 02:04 PM
Arrived: 19-Sep-18 03:14 PM
Distance/Time
Traveled:
105nm/1:09
Distance/Time
To Go:
Arrived

Flight Plot

Page will automatically refresh every two minutes.


Map Options




Map Legend


Flown Route
Filed Route
Departure Airport
Arrival Airport
Navaid (VOR, NDB)
Fix

Horizontal Profiles

Position Reports

Time Latitude Longitude Heading Altitude Ground
Speed
19-Sep-18 13:33 34.574072 -117.189570 178 3065ft 0kts
19-Sep-18 13:34 34.574072 -117.189570 178 3065ft 0kts
19-Sep-18 13:35 34.574071 -117.189570 178 3065ft 0kts
19-Sep-18 13:36 34.574071 -117.189570 178 3065ft 0kts
19-Sep-18 13:37 34.574071 -117.189570 178 3065ft 0kts
19-Sep-18 13:38 34.574070 -117.189570 178 3065ft 0kts
19-Sep-18 13:39 34.574070 -117.189570 178 3065ft 0kts
19-Sep-18 13:40 34.574070 -117.189570 178 3065ft 0kts
19-Sep-18 13:41 34.574070 -117.189570 178 3065ft 0kts
19-Sep-18 13:42 34.574069 -117.189570 178 3065ft 0kts
19-Sep-18 13:43 34.574069 -117.189570 178 3065ft 0kts
19-Sep-18 13:44 34.574069 -117.189570 178 3065ft 0kts
19-Sep-18 13:45 34.574068 -117.189570 178 3065ft 0kts
19-Sep-18 13:46 34.574068 -117.189570 178 3065ft 0kts
19-Sep-18 13:47 34.574068 -117.189570 178 3065ft 0kts
19-Sep-18 13:48 34.574067 -117.189570 178 3065ft 0kts
19-Sep-18 13:49 34.574067 -117.189570 178 3065ft 0kts
19-Sep-18 13:50 34.574067 -117.189570 178 3065ft 0kts
19-Sep-18 13:51 34.574066 -117.189570 178 3065ft 0kts
19-Sep-18 13:52 34.574066 -117.189570 178 3065ft 0kts
19-Sep-18 13:53 34.574066 -117.189570 178 3065ft 0kts
19-Sep-18 13:54 34.574065 -117.189570 178 3065ft 0kts
19-Sep-18 13:55 34.574065 -117.189570 178 3065ft 0kts
19-Sep-18 13:56 34.574065 -117.189570 178 3065ft 0kts
19-Sep-18 13:57 34.574065 -117.189570 178 3065ft 0kts
19-Sep-18 13:58 34.574064 -117.189570 178 3065ft 0kts
19-Sep-18 13:59 34.574064 -117.189570 178 3065ft 0kts
19-Sep-18 14:00 34.574064 -117.189570 178 3065ft 0kts
19-Sep-18 14:01 34.574063 -117.189570 178 3065ft 0kts
19-Sep-18 14:02 34.574818 -117.189041 94 3065ft 6kts
19-Sep-18 14:03 34.573157 -117.188613 195 3065ft 10kts
19-Sep-18 14:04 34.570776 -117.189178 123 3065ft 2kts
19-Sep-18 14:05 34.571817 -117.188020 16 3065ft 37kts
19-Sep-18 14:06 34.592317 -117.181032 13 3400ft 87kts
19-Sep-18 14:07 34.614870 -117.174217 13 4055ft 79kts
19-Sep-18 14:08 34.628780 -117.186350 285 4645ft 76kts
19-Sep-18 14:09 34.634995 -117.211683 284 5163ft 79kts
19-Sep-18 14:10 34.641105 -117.237390 288 5657ft 78kts
19-Sep-18 14:11 34.647853 -117.262054 289 6148ft 77kts
19-Sep-18 14:12 34.652028 -117.287595 272 6531ft 87kts
19-Sep-18 14:13 34.656751 -117.320307 283 6501ft 103kts
19-Sep-18 14:14 34.663368 -117.354819 284 6500ft 105kts
19-Sep-18 14:15 34.671150 -117.389259 283 6500ft 105kts
19-Sep-18 14:16 34.674628 -117.424639 271 6500ft 105kts
19-Sep-18 14:17 34.671160 -117.460040 261 6499ft 106kts
19-Sep-18 14:18 34.664282 -117.495084 260 6500ft 106kts
19-Sep-18 14:19 34.659320 -117.530395 266 6500ft 105kts
19-Sep-18 14:20 34.658023 -117.565469 271 6500ft 105kts
19-Sep-18 14:21 34.658173 -117.601159 271 6500ft 105kts
19-Sep-18 14:22 34.657060 -117.636801 268 6500ft 105kts
19-Sep-18 14:23 34.654475 -117.671881 266 6499ft 105kts
19-Sep-18 14:24 34.651560 -117.706993 265 6499ft 104kts
19-Sep-18 14:25 34.648376 -117.742217 265 6500ft 104kts
19-Sep-18 14:26 34.644933 -117.777348 265 6499ft 104kts
19-Sep-18 14:27 34.641218 -117.812490 264 6500ft 104kts
19-Sep-18 14:28 34.637233 -117.847573 264 6500ft 105kts
19-Sep-18 14:29 34.633034 -117.882120 263 6500ft 105kts
19-Sep-18 14:30 34.628489 -117.917161 263 6499ft 105kts
19-Sep-18 14:31 34.623643 -117.952205 262 6500ft 105kts
19-Sep-18 14:32 34.618487 -117.987349 262 6500ft 105kts
19-Sep-18 14:33 34.613150 -118.022083 259 6499ft 106kts
19-Sep-18 14:34 34.607491 -118.057401 258 6500ft 106kts
19-Sep-18 14:35 34.629593 -118.075722 342 6503ft 123kts
19-Sep-18 14:36 34.662199 -118.082276 342 6499ft 116kts
19-Sep-18 14:37 34.694071 -118.088568 342 6499ft 116kts
19-Sep-18 14:38 34.725478 -118.095510 335 6499ft 114kts
19-Sep-18 14:39 34.751274 -118.114912 307 6500ft 107kts
19-Sep-18 14:40 34.764816 -118.145715 284 6500ft 104kts
19-Sep-18 14:41 34.771859 -118.179992 282 6500ft 104kts
19-Sep-18 14:42 34.778713 -118.214212 282 6500ft 104kts
19-Sep-18 14:43 34.786798 -118.248157 291 6500ft 105kts
19-Sep-18 14:44 34.803978 -118.277203 311 6500ft 108kts
19-Sep-18 14:45 34.831020 -118.298174 326 6501ft 121kts
19-Sep-18 14:46 34.862362 -118.315813 327 6499ft 125kts
19-Sep-18 14:47 34.892692 -118.336885 319 6499ft 127kts
19-Sep-18 14:48 34.915988 -118.362120 308 6471ft 115kts
19-Sep-18 14:49 34.935024 -118.396402 301 6503ft 127kts
19-Sep-18 14:50 34.953560 -118.433570 304 6499ft 127kts
19-Sep-18 14:51 34.973765 -118.466364 295 6494ft 123kts
19-Sep-18 14:52 34.988623 -118.504803 290 6501ft 125kts
19-Sep-18 14:53 35.012675 -118.532765 342 6508ft 129kts
19-Sep-18 14:54 35.042710 -118.538542 341 6988ft 100kts
19-Sep-18 14:55 35.069892 -118.555691 310 6568ft 117kts
19-Sep-18 14:56 35.091730 -118.584773 305 6499ft 115kts
19-Sep-18 14:57 35.111958 -118.614134 308 6498ft 110kts
19-Sep-18 14:58 35.133854 -118.639800 314 6499ft 109kts
19-Sep-18 14:59 35.155993 -118.665183 311 6500ft 108kts
19-Sep-18 15:00 35.176778 -118.690218 307 6499ft 107kts
19-Sep-18 15:01 35.196565 -118.718183 304 6499ft 106kts
19-Sep-18 15:02 35.215622 -118.746117 306 6500ft 107kts
19-Sep-18 15:03 35.235724 -118.772885 309 6391ft 114kts
19-Sep-18 15:04 35.259217 -118.803670 311 5740ft 125kts
19-Sep-18 15:05 35.282600 -118.833832 313 5075ft 120kts
19-Sep-18 15:06 35.305435 -118.862044 312 4506ft 110kts
19-Sep-18 15:07 35.326653 -118.890087 312 4497ft 112kts
19-Sep-18 15:08 35.350746 -118.907201 2 4513ft 104kts
19-Sep-18 15:09 35.348064 -118.922710 140 4291ft 116kts
19-Sep-18 15:10 35.362379 -118.915461 286 3777ft 115kts
19-Sep-18 15:11 35.369295 -118.954146 280 3425ft 120kts
19-Sep-18 15:12 35.381542 -118.992433 312 2818ft 121kts
19-Sep-18 15:13 35.402826 -119.019049 315 1763ft 108kts
19-Sep-18 15:14 35.421892 -119.041781 315 843ft 83kts
19-Sep-18 15:15 35.436449 -119.059319 315 511ft 49kts
19-Sep-18 15:16 35.438587 -119.060764 83 510ft 0kts
19-Sep-18 15:17 35.437883 -119.058576 135 510ft 10kts
19-Sep-18 15:18 35.435489 -119.055717 137 510ft 12kts
19-Sep-18 15:19 35.435169 -119.053507 38 510ft 8kts
19-Sep-18 15:20 35.436292 -119.051364 34 510ft 0kts
19-Sep-18 15:21 35.436376 -119.051295 34 510ft 0kts
19-Sep-18 15:22 35.436376 -119.051294 34 510ft 0kts
19-Sep-18 15:23 35.436376 -119.051294 34 510ft 0kts
19-Sep-18 15:24 35.436377 -119.051294 34 510ft 0kts
19-Sep-18 15:25 35.436377 -119.051293 34 510ft 0kts
19-Sep-18 15:26 35.436377 -119.051293 34 510ft 0kts
19-Sep-18 15:27 35.436378 -119.051293 34 510ft 0kts
19-Sep-18 15:28 35.436378 -119.051292 34 510ft 0kts
19-Sep-18 15:29 35.436378 -119.051292 34 510ft 0kts
19-Sep-18 15:30 35.436379 -119.051292 34 510ft 0kts

Navigation Log

Ident Type
Flight plan parsing failed, navigation log unavailable